sensor_id;sensor_type;location;lat;lon;timestamp;temperature;humidity
54006;DHT22;39919;38.160;-122.260;2023-04-15T00:01:05;18.60;59.20
54006;DHT22;39919;38.160;-122.260;2023-04-15T00:03:35;18.60;59.40
54006;DHT22;39919;38.160;-122.260;2023-04-15T00:06:05;18.60;59.40
54006;DHT22;39919;38.160;-122.260;2023-04-15T00:08:34;18.50;59.80
54006;DHT22;39919;38.160;-122.260;2023-04-15T00:11:06;18.50;59.30
54006;DHT22;39919;38.160;-122.260;2023-04-15T00:13:57;18.40;59.50
54006;DHT22;39919;38.160;-122.260;2023-04-15T00:16:41;18.30;59.80
54006;DHT22;39919;38.160;-122.260;2023-04-15T00:19:14;18.40;59.40
54006;DHT22;39919;38.160;-122.260;2023-04-15T00:21:47;18.30;59.70
54006;DHT22;39919;38.160;-122.260;2023-04-15T00:24:17;18.30;60.30
54006;DHT22;39919;38.160;-122.260;2023-04-15T00:28:03;18.20;59.80
54006;DHT22;39919;38.160;-122.260;2023-04-15T00:30:42;18.30;60.00
54006;DHT22;39919;38.160;-122.260;2023-04-15T00:33:37;18.10;60.80
54006;DHT22;39919;38.160;-122.260;2023-04-15T00:36:19;18.10;61.90
54006;DHT22;39919;38.160;-122.260;2023-04-15T00:38:52;18.10;60.90
54006;DHT22;39919;38.160;-122.260;2023-04-15T00:41:26;18.00;60.50
54006;DHT22;39919;38.160;-122.260;2023-04-15T00:43:56;17.90;60.90
54006;DHT22;39919;38.160;-122.260;2023-04-15T00:46:45;17.90;62.30
54006;DHT22;39919;38.160;-122.260;2023-04-15T00:49:20;17.80;62.70
54006;DHT22;39919;38.160;-122.260;2023-04-15T00:51:56;17.90;64.50
54006;DHT22;39919;38.160;-122.260;2023-04-15T00:54:26;17.80;66.80
54006;DHT22;39919;38.160;-122.260;2023-04-15T00:56:55;17.70;68.50
54006;DHT22;39919;38.160;-122.260;2023-04-15T00:59:25;17.70;69.70
54006;DHT22;39919;38.160;-122.260;2023-04-15T01:01:59;17.50;70.40
54006;DHT22;39919;38.160;-122.260;2023-04-15T01:04:34;17.50;70.50
54006;DHT22;39919;38.160;-122.260;2023-04-15T01:07:03;17.50;72.00
54006;DHT22;39919;38.160;-122.260;2023-04-15T01:09:33;17.40;72.00
54006;DHT22;39919;38.160;-122.260;2023-04-15T01:12:02;17.40;72.90
54006;DHT22;39919;38.160;-122.260;2023-04-15T01:14:36;17.30;73.00
54006;DHT22;39919;38.160;-122.260;2023-04-15T01:17:09;17.30;73.20
54006;DHT22;39919;38.160;-122.260;2023-04-15T01:19:38;17.20;73.70
54006;DHT22;39919;38.160;-122.260;2023-04-15T01:22:07;17.10;74.10
54006;DHT22;39919;38.160;-122.260;2023-04-15T01:24:37;17.10;74.40
54006;DHT22;39919;38.160;-122.260;2023-04-15T01:27:08;17.10;75.30
54006;DHT22;39919;38.160;-122.260;2023-04-15T01:29:37;17.00;75.60
54006;DHT22;39919;38.160;-122.260;2023-04-15T01:32:07;16.90;76.20
54006;DHT22;39919;38.160;-122.260;2023-04-15T01:34:36;16.90;76.70
54006;DHT22;39919;38.160;-122.260;2023-04-15T01:37:08;16.80;77.00
54006;DHT22;39919;38.160;-122.260;2023-04-15T01:39:37;16.80;77.50
54006;DHT22;39919;38.160;-122.260;2023-04-15T01:42:08;16.70;78.10
54006;DHT22;39919;38.160;-122.260;2023-04-15T01:44:38;16.70;77.90
54006;DHT22;39919;38.160;-122.260;2023-04-15T01:47:07;16.60;78.10
54006;DHT22;39919;38.160;-122.260;2023-04-15T01:49:36;16.60;78.80
54006;DHT22;39919;38.160;-122.260;2023-04-15T01:52:06;16.60;79.60
54006;DHT22;39919;38.160;-122.260;2023-04-15T01:54:35;16.50;80.10
54006;DHT22;39919;38.160;-122.260;2023-04-15T01:57:04;16.40;80.60
54006;DHT22;39919;38.160;-122.260;2023-04-15T01:59:42;16.40;82.50
54006;DHT22;39919;38.160;-122.260;2023-04-15T02:02:11;16.30;85.40
54006;DHT22;39919;38.160;-122.260;2023-04-15T02:04:46;16.30;86.10
54006;DHT22;39919;38.160;-122.260;2023-04-15T02:07:16;16.20;88.10
54006;DHT22;39919;38.160;-122.260;2023-04-15T02:09:45;16.20;89.40
54006;DHT22;39919;38.160;-122.260;2023-04-15T02:12:16;16.10;90.40
54006;DHT22;39919;38.160;-122.260;2023-04-15T02:14:48;16.10;91.10
54006;DHT22;39919;38.160;-122.260;2023-04-15T02:17:17;16.10;91.80
54006;DHT22;39919;38.160;-122.260;2023-04-15T02:19:46;16.00;91.90
54006;DHT22;39919;38.160;-122.260;2023-04-15T02:22:23;16.00;92.00
54006;DHT22;39919;38.160;-122.260;2023-04-15T02:24:52;16.00;92.60
54006;DHT22;39919;38.160;-122.260;2023-04-15T02:27:24;15.90;93.00
54006;DHT22;39919;38.160;-122.260;2023-04-15T02:29:56;15.80;93.00
54006;DHT22;39919;38.160;-122.260;2023-04-15T02:32:28;15.80;93.50
54006;DHT22;39919;38.160;-122.260;2023-04-15T02:35:02;15.80;93.60
54006;DHT22;39919;38.160;-122.260;2023-04-15T02:37:31;15.70;93.80
54006;DHT22;39919;38.160;-122.260;2023-04-15T02:40:08;15.60;94.10
54006;DHT22;39919;38.160;-122.260;2023-04-15T02:42:50;15.50;94.60
54006;DHT22;39919;38.160;-122.260;2023-04-15T02:45:26;15.50;95.70
54006;DHT22;39919;38.160;-122.260;2023-04-15T02:48:01;15.40;95.00
54006;DHT22;39919;38.160;-122.260;2023-04-15T02:50:33;15.30;95.00
54006;DHT22;39919;38.160;-122.260;2023-04-15T02:53:03;15.20;94.70
54006;DHT22;39919;38.160;-122.260;2023-04-15T02:55:33;15.20;94.20
54006;DHT22;39919;38.160;-122.260;2023-04-15T02:58:02;15.10;94.30
54006;DHT22;39919;38.160;-122.260;2023-04-15T03:00:33;15.00;94.60
54006;DHT22;39919;38.160;-122.260;2023-04-15T03:03:06;14.90;95.00
54006;DHT22;39919;38.160;-122.260;2023-04-15T03:05:39;14.80;95.70
54006;DHT22;39919;38.160;-122.260;2023-04-15T03:08:08;14.80;95.20
54006;DHT22;39919;38.160;-122.260;2023-04-15T03:10:37;14.70;95.40
54006;DHT22;39919;38.160;-122.260;2023-04-15T03:13:06;14.60;95.40
54006;DHT22;39919;38.160;-122.260;2023-04-15T03:15:40;14.50;95.50
54006;DHT22;39919;38.160;-122.260;2023-04-15T03:18:09;14.40;94.90
54006;DHT22;39919;38.160;-122.260;2023-04-15T03:20:38;14.40;95.10
54006;DHT22;39919;38.160;-122.260;2023-04-15T03:23:08;14.30;95.80
54006;DHT22;39919;38.160;-122.260;2023-04-15T03:25:37;14.20;95.70
54006;DHT22;39919;38.160;-122.260;2023-04-15T03:28:07;14.10;95.70
54006;DHT22;39919;38.160;-122.260;2023-04-15T03:30:40;14.00;95.60
54006;DHT22;39919;38.160;-122.260;2023-04-15T03:33:10;14.00;95.40
54006;DHT22;39919;38.160;-122.260;2023-04-15T03:35:39;13.90;95.50
54006;DHT22;39919;38.160;-122.260;2023-04-15T03:38:11;13.80;95.50
54006;DHT22;39919;38.160;-122.260;2023-04-15T03:40:41;13.80;95.30
54006;DHT22;39919;38.160;-122.260;2023-04-15T03:43:12;13.70;95.80
54006;DHT22;39919;38.160;-122.260;2023-04-15T03:45:44;13.60;95.80
54006;DHT22;39919;38.160;-122.260;2023-04-15T03:48:14;13.50;95.90
54006;DHT22;39919;38.160;-122.260;2023-04-15T03:50:43;13.50;96.20
54006;DHT22;39919;38.160;-122.260;2023-04-15T03:53:12;13.40;96.10
54006;DHT22;39919;38.160;-122.260;2023-04-15T03:55:42;13.30;95.80
54006;DHT22;39919;38.160;-122.260;2023-04-15T03:58:11;13.30;95.60
54006;DHT22;39919;38.160;-122.260;2023-04-15T04:00:40;13.20;95.30
54006;DHT22;39919;38.160;-122.260;2023-04-15T04:03:11;13.10;95.30
54006;DHT22;39919;38.160;-122.260;2023-04-15T04:05:40;13.10;95.10
54006;DHT22;39919;38.160;-122.260;2023-04-15T04:08:10;13.00;95.10
54006;DHT22;39919;38.160;-122.260;2023-04-15T04:10:40;13.00;95.30
54006;DHT22;39919;38.160;-122.260;2023-04-15T04:13:09;12.90;93.90
54006;DHT22;39919;38.160;-122.260;2023-04-15T04:15:39;12.80;93.70
54006;DHT22;39919;38.160;-122.260;2023-04-15T04:18:08;12.80;93.60
54006;DHT22;39919;38.160;-122.260;2023-04-15T04:20:39;12.70;93.80
54006;DHT22;39919;38.160;-122.260;2023-04-15T04:23:13;12.70;93.60
54006;DHT22;39919;38.160;-122.260;2023-04-15T04:25:42;12.60;93.50
54006;DHT22;39919;38.160;-122.260;2023-04-15T04:28:12;12.60;93.70
54006;DHT22;39919;38.160;-122.260;2023-04-15T04:30:41;12.50;93.60
54006;DHT22;39919;38.160;-122.260;2023-04-15T04:33:10;12.50;92.90
54006;DHT22;39919;38.160;-122.260;2023-04-15T04:35:41;12.40;93.30
54006;DHT22;39919;38.160;-122.260;2023-04-15T04:38:11;12.40;93.60
54006;DHT22;39919;38.160;-122.260;2023-04-15T04:40:40;12.40;93.70
54006;DHT22;39919;38.160;-122.260;2023-04-15T04:43:14;12.30;93.80
54006;DHT22;39919;38.160;-122.260;2023-04-15T04:45:45;12.30;93.70
54006;DHT22;39919;38.160;-122.260;2023-04-15T04:48:27;12.30;92.90
54006;DHT22;39919;38.160;-122.260;2023-04-15T04:51:13;12.20;93.10
54006;DHT22;39919;38.160;-122.260;2023-04-15T04:56:35;12.10;91.30
54006;DHT22;39919;38.160;-122.260;2023-04-15T04:59:07;12.10;91.50
54006;DHT22;39919;38.160;-122.260;2023-04-15T05:01:40;12.00;91.20
54006;DHT22;39919;38.160;-122.260;2023-04-15T05:04:12;11.90;90.50
54006;DHT22;39919;38.160;-122.260;2023-04-15T05:06:46;11.90;90.50
54006;DHT22;39919;38.160;-122.260;2023-04-15T05:09:28;11.80;90.30
54006;DHT22;39919;38.160;-122.260;2023-04-15T05:11:59;11.90;88.90
54006;DHT22;39919;38.160;-122.260;2023-04-15T05:14:37;11.80;89.60
54006;DHT22;39919;38.160;-122.260;2023-04-15T05:17:09;11.80;90.20
54006;DHT22;39919;38.160;-122.260;2023-04-15T05:19:41;11.70;90.50
54006;DHT22;39919;38.160;-122.260;2023-04-15T05:22:28;11.70;90.20
54006;DHT22;39919;38.160;-122.260;2023-04-15T05:24:58;11.70;87.80
54006;DHT22;39919;38.160;-122.260;2023-04-15T05:27:30;11.60;85.60
54006;DHT22;39919;38.160;-122.260;2023-04-15T05:30:02;11.60;82.90
54006;DHT22;39919;38.160;-122.260;2023-04-15T05:32:31;11.50;81.70
54006;DHT22;39919;38.160;-122.260;2023-04-15T05:35:00;11.40;81.30
54006;DHT22;39919;38.160;-122.260;2023-04-15T05:37:33;11.40;80.90
54006;DHT22;39919;38.160;-122.260;2023-04-15T05:40:07;11.40;80.50
54006;DHT22;39919;38.160;-122.260;2023-04-15T05:42:42;11.30;80.90
54006;DHT22;39919;38.160;-122.260;2023-04-15T05:45:11;11.30;81.30
54006;DHT22;39919;38.160;-122.260;2023-04-15T05:47:41;11.30;81.20
54006;DHT22;39919;38.160;-122.260;2023-04-15T05:50:10;11.30;80.60
54006;DHT22;39919;38.160;-122.260;2023-04-15T05:52:41;11.20;80.20
54006;DHT22;39919;38.160;-122.260;2023-04-15T05:55:11;11.20;81.50
54006;DHT22;39919;38.160;-122.260;2023-04-15T05:57:40;11.10;81.30
54006;DHT22;39919;38.160;-122.260;2023-04-15T06:00:15;11.10;82.00
54006;DHT22;39919;38.160;-122.260;2023-04-15T06:02:47;11.10;81.70
54006;DHT22;39919;38.160;-122.260;2023-04-15T06:05:16;11.00;82.20
54006;DHT22;39919;38.160;-122.260;2023-04-15T06:07:53;11.00;82.40
54006;DHT22;39919;38.160;-122.260;2023-04-15T06:10:23;10.90;82.50
54006;DHT22;39919;38.160;-122.260;2023-04-15T06:12:53;10.90;82.80
54006;DHT22;39919;38.160;-122.260;2023-04-15T06:15:22;10.90;82.90
54006;DHT22;39919;38.160;-122.260;2023-04-15T06:17:51;10.80;82.40
54006;DHT22;39919;38.160;-122.260;2023-04-15T06:20:20;10.80;82.80
54006;DHT22;39919;38.160;-122.260;2023-04-15T06:22:51;10.80;82.50
54006;DHT22;39919;38.160;-122.260;2023-04-15T06:25:23;10.70;82.20
54006;DHT22;39919;38.160;-122.260;2023-04-15T06:27:53;10.70;82.80
54006;DHT22;39919;38.160;-122.260;2023-04-15T06:30:22;10.70;83.70
54006;DHT22;39919;38.160;-122.260;2023-04-15T06:32:52;10.60;84.00
54006;DHT22;39919;38.160;-122.260;2023-04-15T06:35:25;10.60;84.50
54006;DHT22;39919;38.160;-122.260;2023-04-15T06:37:56;10.60;84.40
54006;DHT22;39919;38.160;-122.260;2023-04-15T06:40:25;10.60;85.00
54006;DHT22;39919;38.160;-122.260;2023-04-15T06:42:57;10.50;85.00
54006;DHT22;39919;38.160;-122.260;2023-04-15T06:45:26;10.50;85.50
54006;DHT22;39919;38.160;-122.260;2023-04-15T06:47:56;10.50;85.70
54006;DHT22;39919;38.160;-122.260;2023-04-15T06:50:26;10.50;85.60
54006;DHT22;39919;38.160;-122.260;2023-04-15T06:52:59;10.40;86.30
54006;DHT22;39919;38.160;-122.260;2023-04-15T06:55:29;10.40;87.20
54006;DHT22;39919;38.160;-122.260;2023-04-15T06:57:59;10.40;87.10
54006;DHT22;39919;38.160;-122.260;2023-04-15T07:00:30;10.30;87.10
54006;DHT22;39919;38.160;-122.260;2023-04-15T07:03:02;10.30;87.10
54006;DHT22;39919;38.160;-122.260;2023-04-15T07:05:31;10.30;87.20
54006;DHT22;39919;38.160;-122.260;2023-04-15T07:08:07;10.30;88.00
54006;DHT22;39919;38.160;-122.260;2023-04-15T07:10:39;10.20;87.90
54006;DHT22;39919;38.160;-122.260;2023-04-15T07:13:09;10.20;88.90
54006;DHT22;39919;38.160;-122.260;2023-04-15T07:15:39;10.20;88.50
54006;DHT22;39919;38.160;-122.260;2023-04-15T07:18:08;10.20;89.30
54006;DHT22;39919;38.160;-122.260;2023-04-15T07:20:37;10.10;89.50
54006;DHT22;39919;38.160;-122.260;2023-04-15T07:23:08;10.10;90.10
54006;DHT22;39919;38.160;-122.260;2023-04-15T07:25:43;10.10;89.50
54006;DHT22;39919;38.160;-122.260;2023-04-15T07:28:13;10.10;90.20
54006;DHT22;39919;38.160;-122.260;2023-04-15T07:30:42;10.10;90.10
54006;DHT22;39919;38.160;-122.260;2023-04-15T07:33:11;10.00;89.90
54006;DHT22;39919;38.160;-122.260;2023-04-15T07:35:44;10.00;89.80
54006;DHT22;39919;38.160;-122.260;2023-04-15T07:38:15;10.00;90.00
54006;DHT22;39919;38.160;-122.260;2023-04-15T07:40:45;9.90;90.10
54006;DHT22;39919;38.160;-122.260;2023-04-15T07:43:17;9.90;90.90
54006;DHT22;39919;38.160;-122.260;2023-04-15T07:45:47;9.90;90.90
54006;DHT22;39919;38.160;-122.260;2023-04-15T07:48:16;9.90;91.10
54006;DHT22;39919;38.160;-122.260;2023-04-15T07:50:48;9.90;91.30
54006;DHT22;39919;38.160;-122.260;2023-04-15T07:53:21;9.90;91.10
54006;DHT22;39919;38.160;-122.260;2023-04-15T07:55:50;9.80;91.10
54006;DHT22;39919;38.160;-122.260;2023-04-15T07:58:20;9.90;91.10
54006;DHT22;39919;38.160;-122.260;2023-04-15T08:00:52;9.90;91.50
54006;DHT22;39919;38.160;-122.260;2023-04-15T08:03:25;9.80;92.10
54006;DHT22;39919;38.160;-122.260;2023-04-15T08:05:56;9.80;92.30
54006;DHT22;39919;38.160;-122.260;2023-04-15T08:08:27;9.90;92.50
54006;DHT22;39919;38.160;-122.260;2023-04-15T08:10:56;9.80;92.60
54006;DHT22;39919;38.160;-122.260;2023-04-15T08:13:26;9.80;92.80
54006;DHT22;39919;38.160;-122.260;2023-04-15T08:16:13;9.80;92.80
54006;DHT22;39919;38.160;-122.260;2023-04-15T08:18:42;9.80;92.70
54006;DHT22;39919;38.160;-122.260;2023-04-15T08:21:12;9.80;93.30
54006;DHT22;39919;38.160;-122.260;2023-04-15T08:23:43;9.80;93.40
54006;DHT22;39919;38.160;-122.260;2023-04-15T08:26:15;9.80;93.50
54006;DHT22;39919;38.160;-122.260;2023-04-15T08:28:45;9.80;93.50
54006;DHT22;39919;38.160;-122.260;2023-04-15T08:31:15;9.70;93.20
54006;DHT22;39919;38.160;-122.260;2023-04-15T08:33:45;9.80;93.90
54006;DHT22;39919;38.160;-122.260;2023-04-15T08:36:14;9.80;93.90
54006;DHT22;39919;38.160;-122.260;2023-04-15T08:38:46;9.80;93.70
54006;DHT22;39919;38.160;-122.260;2023-04-15T08:41:20;9.80;93.50
54006;DHT22;39919;38.160;-122.260;2023-04-15T08:43:56;9.80;93.70
54006;DHT22;39919;38.160;-122.260;2023-04-15T08:46:28;9.80;93.90
54006;DHT22;39919;38.160;-122.260;2023-04-15T08:49:03;9.80;94.20
54006;DHT22;39919;38.160;-122.260;2023-04-15T08:51:33;9.80;94.10
54006;DHT22;39919;38.160;-122.260;2023-04-15T08:54:04;9.90;94.20
54006;DHT22;39919;38.160;-122.260;2023-04-15T08:56:34;9.90;94.30
54006;DHT22;39919;38.160;-122.260;2023-04-15T08:59:06;9.90;94.30
54006;DHT22;39919;38.160;-122.260;2023-04-15T09:01:37;10.00;94.60
54006;DHT22;39919;38.160;-122.260;2023-04-15T09:04:07;10.00;94.70
54006;DHT22;39919;38.160;-122.260;2023-04-15T09:06:37;10.00;94.80
54006;DHT22;39919;38.160;-122.260;2023-04-15T09:09:09;10.10;94.80
54006;DHT22;39919;38.160;-122.260;2023-04-15T09:11:43;10.10;94.70
54006;DHT22;39919;38.160;-122.260;2023-04-15T09:14:18;10.20;94.60
54006;DHT22;39919;38.160;-122.260;2023-04-15T09:16:57;10.20;94.60
54006;DHT22;39919;38.160;-122.260;2023-04-15T09:19:27;10.20;94.70
54006;DHT22;39919;38.160;-122.260;2023-04-15T09:21:57;10.20;94.70
54006;DHT22;39919;38.160;-122.260;2023-04-15T09:24:35;10.30;94.80
54006;DHT22;39919;38.160;-122.260;2023-04-15T09:27:09;10.30;94.90
54006;DHT22;39919;38.160;-122.260;2023-04-15T09:29:40;10.40;95.10
54006;DHT22;39919;38.160;-122.260;2023-04-15T09:32:11;10.40;95.00
54006;DHT22;39919;38.160;-122.260;2023-04-15T09:34:41;10.50;95.00
54006;DHT22;39919;38.160;-122.260;2023-04-15T09:37:10;10.40;94.80
54006;DHT22;39919;38.160;-122.260;2023-04-15T09:39:52;10.50;94.60
54006;DHT22;39919;38.160;-122.260;2023-04-15T09:42:21;10.50;94.30
54006;DHT22;39919;38.160;-122.260;2023-04-15T09:44:52;10.50;94.20
54006;DHT22;39919;38.160;-122.260;2023-04-15T09:47:34;10.50;94.40
54006;DHT22;39919;38.160;-122.260;2023-04-15T09:50:03;10.60;94.20
54006;DHT22;39919;38.160;-122.260;2023-04-15T09:52:33;10.60;94.70
54006;DHT22;39919;38.160;-122.260;2023-04-15T09:55:07;10.60;95.20
54006;DHT22;39919;38.160;-122.260;2023-04-15T09:57:36;10.60;96.00
54006;DHT22;39919;38.160;-122.260;2023-04-15T10:00:08;10.60;96.10
54006;DHT22;39919;38.160;-122.260;2023-04-15T10:02:38;10.70;96.60
54006;DHT22;39919;38.160;-122.260;2023-04-15T10:05:10;10.70;96.70
54006;DHT22;39919;38.160;-122.260;2023-04-15T10:07:41;10.80;95.80
54006;DHT22;39919;38.160;-122.260;2023-04-15T10:10:14;10.80;95.50
54006;DHT22;39919;38.160;-122.260;2023-04-15T10:12:44;10.80;95.10
54006;DHT22;39919;38.160;-122.260;2023-04-15T10:15:15;10.90;94.60
54006;DHT22;39919;38.160;-122.260;2023-04-15T10:17:45;10.80;93.80
54006;DHT22;39919;38.160;-122.260;2023-04-15T10:20:19;10.90;93.80
54006;DHT22;39919;38.160;-122.260;2023-04-15T10:22:49;10.90;93.60
54006;DHT22;39919;38.160;-122.260;2023-04-15T10:25:20;10.90;94.10
54006;DHT22;39919;38.160;-122.260;2023-04-15T10:27:51;11.00;94.00
54006;DHT22;39919;38.160;-122.260;2023-04-15T10:30:21;11.00;94.20
54006;DHT22;39919;38.160;-122.260;2023-04-15T10:32:51;11.00;94.10
54006;DHT22;39919;38.160;-122.260;2023-04-15T10:35:21;11.10;94.00
54006;DHT22;39919;38.160;-122.260;2023-04-15T10:37:51;11.10;94.20
54006;DHT22;39919;38.160;-122.260;2023-04-15T10:40:29;11.10;94.10
54006;DHT22;39919;38.160;-122.260;2023-04-15T10:42:58;11.20;94.20
54006;DHT22;39919;38.160;-122.260;2023-04-15T10:45:32;11.20;94.00
54006;DHT22;39919;38.160;-122.260;2023-04-15T10:48:02;11.20;94.00
54006;DHT22;39919;38.160;-122.260;2023-04-15T10:50:32;11.20;93.70
54006;DHT22;39919;38.160;-122.260;2023-04-15T10:53:03;11.20;93.70
54006;DHT22;39919;38.160;-122.260;2023-04-15T10:55:34;11.30;93.90
54006;DHT22;39919;38.160;-122.260;2023-04-15T10:58:05;11.30;94.10
54006;DHT22;39919;38.160;-122.260;2023-04-15T11:00:37;11.30;94.00
54006;DHT22;39919;38.160;-122.260;2023-04-15T11:03:06;11.30;93.80
54006;DHT22;39919;38.160;-122.260;2023-04-15T11:05:52;11.30;94.30
54006;DHT22;39919;38.160;-122.260;2023-04-15T11:08:57;11.40;94.00
54006;DHT22;39919;38.160;-122.260;2023-04-15T11:12:08;11.30;93.60
54006;DHT22;39919;38.160;-122.260;2023-04-15T11:14:40;11.40;93.30
54006;DHT22;39919;38.160;-122.260;2023-04-15T11:17:09;11.40;93.10
54006;DHT22;39919;38.160;-122.260;2023-04-15T11:19:38;11.40;93.00
54006;DHT22;39919;38.160;-122.260;2023-04-15T11:22:11;11.40;93.00
54006;DHT22;39919;38.160;-122.260;2023-04-15T11:24:47;11.40;92.80
54006;DHT22;39919;38.160;-122.260;2023-04-15T11:27:23;11.50;92.90
54006;DHT22;39919;38.160;-122.260;2023-04-15T11:29:56;11.40;92.90
54006;DHT22;39919;38.160;-122.260;2023-04-15T11:32:27;11.40;92.90
54006;DHT22;39919;38.160;-122.260;2023-04-15T11:34:57;11.50;92.90
54006;DHT22;39919;38.160;-122.260;2023-04-15T11:37:29;11.40;92.90
54006;DHT22;39919;38.160;-122.260;2023-04-15T11:40:03;11.40;93.00
54006;DHT22;39919;38.160;-122.260;2023-04-15T11:42:37;11.40;92.90
54006;DHT22;39919;38.160;-122.260;2023-04-15T11:45:10;11.40;92.60
54006;DHT22;39919;38.160;-122.260;2023-04-15T11:47:40;11.40;92.50
54006;DHT22;39919;38.160;-122.260;2023-04-15T11:50:17;11.40;92.60
54006;DHT22;39919;38.160;-122.260;2023-04-15T11:52:53;11.40;92.50
54006;DHT22;39919;38.160;-122.260;2023-04-15T11:55:22;11.40;92.40
54006;DHT22;39919;38.160;-122.260;2023-04-15T11:58:06;11.40;92.30
54006;DHT22;39919;38.160;-122.260;2023-04-15T12:00:54;11.50;92.40
54006;DHT22;39919;38.160;-122.260;2023-04-15T12:03:24;11.50;92.30
54006;DHT22;39919;38.160;-122.260;2023-04-15T12:06:04;11.40;92.30
54006;DHT22;39919;38.160;-122.260;2023-04-15T12:08:48;11.40;92.20
54006;DHT22;39919;38.160;-122.260;2023-04-15T12:11:18;11.40;92.20
54006;DHT22;39919;38.160;-122.260;2023-04-15T12:13:53;11.50;92.30
54006;DHT22;39919;38.160;-122.260;2023-04-15T12:16:23;11.50;92.10
54006;DHT22;39919;38.160;-122.260;2023-04-15T12:18:54;11.50;91.80
54006;DHT22;39919;38.160;-122.260;2023-04-15T12:21:27;11.50;91.70
54006;DHT22;39919;38.160;-122.260;2023-04-15T12:24:04;11.50;91.90
54006;DHT22;39919;38.160;-122.260;2023-04-15T12:26:36;11.50;92.10
54006;DHT22;39919;38.160;-122.260;2023-04-15T12:29:08;11.50;91.90
54006;DHT22;39919;38.160;-122.260;2023-04-15T12:31:47;11.50;92.00
54006;DHT22;39919;38.160;-122.260;2023-04-15T12:34:29;11.50;91.80
54006;DHT22;39919;38.160;-122.260;2023-04-15T12:37:01;11.50;91.80
54006;DHT22;39919;38.160;-122.260;2023-04-15T12:39:33;11.50;91.80
54006;DHT22;39919;38.160;-122.260;2023-04-15T12:42:03;11.50;91.70
54006;DHT22;39919;38.160;-122.260;2023-04-15T12:44:35;11.50;92.00
54006;DHT22;39919;38.160;-122.260;2023-04-15T12:47:05;11.60;92.10
54006;DHT22;39919;38.160;-122.260;2023-04-15T12:49:34;11.60;92.20
54006;DHT22;39919;38.160;-122.260;2023-04-15T12:52:04;11.60;91.50
54006;DHT22;39919;38.160;-122.260;2023-04-15T12:54:33;11.50;91.00
54006;DHT22;39919;38.160;-122.260;2023-04-15T12:57:03;11.50;90.70
54006;DHT22;39919;38.160;-122.260;2023-04-15T12:59:34;11.50;90.60
54006;DHT22;39919;38.160;-122.260;2023-04-15T13:02:03;11.50;90.50
54006;DHT22;39919;38.160;-122.260;2023-04-15T13:04:33;11.40;90.40
54006;DHT22;39919;38.160;-122.260;2023-04-15T13:07:02;11.40;90.30
54006;DHT22;39919;38.160;-122.260;2023-04-15T13:09:31;11.40;90.30
54006;DHT22;39919;38.160;-122.260;2023-04-15T13:12:01;11.40;90.40
54006;DHT22;39919;38.160;-122.260;2023-04-15T13:14:31;11.40;90.40
54006;DHT22;39919;38.160;-122.260;2023-04-15T13:17:02;11.40;90.50
54006;DHT22;39919;38.160;-122.260;2023-04-15T13:19:36;11.40;90.50
54006;DHT22;39919;38.160;-122.260;2023-04-15T13:22:05;11.40;90.60
54006;DHT22;39919;38.160;-122.260;2023-04-15T13:24:34;11.40;90.60
54006;DHT22;39919;38.160;-122.260;2023-04-15T13:27:05;11.40;90.90
54006;DHT22;39919;38.160;-122.260;2023-04-15T13:29:34;11.40;90.70
54006;DHT22;39919;38.160;-122.260;2023-04-15T13:32:05;11.30;90.70
54006;DHT22;39919;38.160;-122.260;2023-04-15T13:34:37;11.40;90.60
54006;DHT22;39919;38.160;-122.260;2023-04-15T13:37:07;11.40;90.50
54006;DHT22;39919;38.160;-122.260;2023-04-15T13:39:36;11.40;90.40
54006;DHT22;39919;38.160;-122.260;2023-04-15T13:42:05;11.40;90.50
54006;DHT22;39919;38.160;-122.260;2023-04-15T13:44:35;11.40;90.40
54006;DHT22;39919;38.160;-122.260;2023-04-15T13:47:06;11.40;90.30
54006;DHT22;39919;38.160;-122.260;2023-04-15T13:49:35;11.40;90.40
54006;DHT22;39919;38.160;-122.260;2023-04-15T13:52:05;11.40;90.40
54006;DHT22;39919;38.160;-122.260;2023-04-15T13:54:34;11.40;90.30
54006;DHT22;39919;38.160;-122.260;2023-04-15T13:57:03;11.40;90.30
54006;DHT22;39919;38.160;-122.260;2023-04-15T13:59:33;11.40;90.30
54006;DHT22;39919;38.160;-122.260;2023-04-15T14:02:02;11.40;90.20
54006;DHT22;39919;38.160;-122.260;2023-04-15T14:04:34;11.40;90.20
54006;DHT22;39919;38.160;-122.260;2023-04-15T14:07:04;11.40;90.60
54006;DHT22;39919;38.160;-122.260;2023-04-15T14:09:34;11.40;90.70
54006;DHT22;39919;38.160;-122.260;2023-04-15T14:12:03;11.40;90.60
54006;DHT22;39919;38.160;-122.260;2023-04-15T14:14:33;11.50;90.80
54006;DHT22;39919;38.160;-122.260;2023-04-15T14:17:02;11.50;90.80
54006;DHT22;39919;38.160;-122.260;2023-04-15T14:19:33;11.50;91.00
54006;DHT22;39919;38.160;-122.260;2023-04-15T14:22:02;11.40;90.80
54006;DHT22;39919;38.160;-122.260;2023-04-15T14:24:34;11.40;90.80
54006;DHT22;39919;38.160;-122.260;2023-04-15T14:27:06;11.40;90.90
54006;DHT22;39919;38.160;-122.260;2023-04-15T14:29:39;11.40;90.90
54006;DHT22;39919;38.160;-122.260;2023-04-15T14:32:08;11.40;90.90
54006;DHT22;39919;38.160;-122.260;2023-04-15T14:34:39;11.40;90.90
54006;DHT22;39919;38.160;-122.260;2023-04-15T14:37:08;11.50;90.80
54006;DHT22;39919;38.160;-122.260;2023-04-15T14:39:37;11.50;90.60
54006;DHT22;39919;38.160;-122.260;2023-04-15T14:42:07;11.50;90.50
54006;DHT22;39919;38.160;-122.260;2023-04-15T14:44:38;11.50;90.70
54006;DHT22;39919;38.160;-122.260;2023-04-15T14:47:10;11.50;90.30
54006;DHT22;39919;38.160;-122.260;2023-04-15T14:49:44;11.50;90.30
54006;DHT22;39919;38.160;-122.260;2023-04-15T14:52:13;11.60;90.20
54006;DHT22;39919;38.160;-122.260;2023-04-15T14:54:42;11.60;90.00
54006;DHT22;39919;38.160;-122.260;2023-04-15T14:57:11;11.60;90.20
54006;DHT22;39919;38.160;-122.260;2023-04-15T14:59:44;11.60;89.50
54006;DHT22;39919;38.160;-122.260;2023-04-15T15:02:14;11.70;89.10
54006;DHT22;39919;38.160;-122.260;2023-04-15T15:04:46;11.70;88.80
54006;DHT22;39919;38.160;-122.260;2023-04-15T15:07:15;11.70;88.40
54006;DHT22;39919;38.160;-122.260;2023-04-15T15:09:44;11.70;88.40
54006;DHT22;39919;38.160;-122.260;2023-04-15T15:12:27;11.70;88.20
54006;DHT22;39919;38.160;-122.260;2023-04-15T15:14:56;11.80;88.10
54006;DHT22;39919;38.160;-122.260;2023-04-15T15:17:25;11.80;87.80
54006;DHT22;39919;38.160;-122.260;2023-04-15T15:19:56;11.80;87.70
54006;DHT22;39919;38.160;-122.260;2023-04-15T15:22:29;11.90;87.70